LFML/MRS METAR and TAF weather

Enter ICAO airport designator
Station Type Date Time Source
LFML METAR 2021/09/28 16:00 UTC NOAA

LFML 281600Z AUTO 28008KT CAVOK 24/14 Q1018 NOSIG


Station Type Date Time Source
LFML Decoded METAR 2021/09/28 16:00 UTC NOAA

Marseille / Marignane, France (LFML) 43-27N 005-14E 36M
Sep 28, 2021 - 12:00 PM EDT / 2021.09.28 1600 UTC
Wind: from the W (280 degrees) at 9 MPH (8 KT):0
Visibility: greater than 7 mile(s):0
Temperature: 75 F (24 C)
Dew Point: 57 F (14 C)
Relative Humidity: 53%
Pressure (altimeter): 30.06 in. Hg (1018 hPa)
ob: LFML 281600Z AUTO 28008KT CAVOK 24/14 Q1018 NOSIG
cycle: 16

Station Type Date Time Source
LFML TAF 2021/09/28 15:48 UTC NOAA

TAF TAF LFML 281400Z 2815/2921 28010KT CAVOK TX25/2815Z TN16/2905Z
BECMG 2818/2820 VRB03KT
BECMG 2906/2908 33015KT
TEMPO 2910/2921 33020G30KT

Example: see airport list